createdAt,value
2023-01-19T00:00:09.534Z,-1.2
2023-01-19T00:01:12.695Z,-1.2
2023-01-19T00:02:15.742Z,-1.2
2023-01-19T00:03:19.214Z,-1.3
2023-01-19T00:04:21.677Z,-1.3
2023-01-19T00:05:24.347Z,-1.3
2023-01-19T00:06:28.083Z,-1.2
2023-01-19T00:07:30.995Z,-1.2
2023-01-19T00:08:34.251Z,-1.2
2023-01-19T00:09:37.594Z,-1.2
2023-01-19T00:10:40.746Z,-1.2
2023-01-19T00:11:44.026Z,-1.2
2023-01-19T00:12:47.373Z,-1.2
2023-01-19T00:13:51.640Z,-1.3
2023-01-19T00:14:55.087Z,-1.2
2023-01-19T00:15:58.227Z,-1.2
2023-01-19T00:17:01.833Z,-1.2
2023-01-19T00:18:04.551Z,-1.1
2023-01-19T00:19:08.117Z,-1.2
2023-01-19T00:20:11.143Z,-1.2
2023-01-19T00:21:13.626Z,-1.2
2023-01-19T00:22:17.094Z,-1.2
2023-01-19T00:23:20.270Z,-1.1
2023-01-19T00:24:23.290Z,-1.1
2023-01-19T00:25:27.345Z,-1.1
2023-01-19T00:26:30.194Z,-1.1
2023-01-19T00:27:33.748Z,-1.1
2023-01-19T00:28:36.632Z,-1.1
2023-01-19T00:29:40.449Z,-1
2023-01-19T00:30:43.652Z,-1.1
2023-01-19T00:31:47.675Z,-1.1
2023-01-19T00:32:50.567Z,-1.1
2023-01-19T00:33:54.680Z,-1.1
2023-01-19T00:34:58.215Z,-1.1
2023-01-19T00:36:00.945Z,-1.1
2023-01-19T00:37:03.476Z,-1.1
2023-01-19T00:38:06.275Z,-1.1
2023-01-19T00:39:09.286Z,-1.1
2023-01-19T00:40:12.035Z,-1.1
2023-01-19T00:41:15.281Z,-1.1
2023-01-19T00:42:18.005Z,-1.1
2023-01-19T00:43:21.087Z,-1.1
2023-01-19T00:44:23.866Z,-1.1
2023-01-19T00:45:28.087Z,-1
2023-01-19T00:46:31.259Z,-1
2023-01-19T00:47:33.688Z,-1
2023-01-19T00:48:36.800Z,-1
2023-01-19T00:49:39.922Z,-1
2023-01-19T00:50:43.338Z,-1
2023-01-19T00:51:46.044Z,-1
2023-01-19T00:52:48.913Z,-1
2023-01-19T00:53:51.987Z,-1
2023-01-19T00:54:54.755Z,-0.9
2023-01-19T00:55:57.938Z,-0.9
2023-01-19T00:57:00.655Z,-0.9
2023-01-19T00:58:03.463Z,-0.9
2023-01-19T00:59:06.470Z,-0.9
2023-01-19T01:00:09.601Z,-0.9
2023-01-19T01:01:14.020Z,-0.9
2023-01-19T01:02:19.347Z,-0.8
2023-01-19T01:03:23.243Z,-0.8
2023-01-19T01:04:27.229Z,-0.8
2023-01-19T01:05:29.399Z,-0.8
2023-01-19T01:06:32.678Z,-0.8
2023-01-19T01:07:35.841Z,-0.8
2023-01-19T01:08:39.570Z,-0.8
2023-01-19T01:09:42.535Z,-0.8
2023-01-19T01:10:45.511Z,-0.8
2023-01-19T01:11:48.291Z,-0.7
2023-01-19T01:13:27.421Z,-0.7
2023-01-19T01:14:33.261Z,-0.7
2023-01-19T01:15:36.534Z,-0.7
2023-01-19T01:16:40.414Z,-0.7
2023-01-19T01:17:44.145Z,-0.7
2023-01-19T01:18:46.605Z,-0.8
2023-01-19T01:19:49.348Z,-0.7
2023-01-19T01:20:56.461Z,-0.7
2023-01-19T01:21:58.699Z,-0.7
2023-01-19T01:23:04.154Z,-0.7
2023-01-19T01:24:07.490Z,-0.7
2023-01-19T01:25:10.000Z,-0.7
2023-01-19T01:26:13.461Z,-0.7
2023-01-19T01:27:15.924Z,-0.7
2023-01-19T01:28:19.077Z,-0.6
2023-01-19T01:29:23.175Z,-0.6
2023-01-19T01:30:26.331Z,-0.6
2023-01-19T01:31:30.272Z,-0.6
2023-01-19T01:32:34.078Z,-0.6
2023-01-19T01:33:43.536Z,-0.6
2023-01-19T01:34:46.339Z,-0.7
2023-01-19T01:35:49.062Z,-0.7
2023-01-19T01:36:52.440Z,-0.7
2023-01-19T01:37:55.441Z,-0.7
2023-01-19T01:38:58.500Z,-0.8
2023-01-19T01:40:01.291Z,-0.8
2023-01-19T01:41:04.322Z,-0.7
2023-01-19T01:42:07.525Z,-0.8
2023-01-19T01:43:10.073Z,-0.8
2023-01-19T01:44:14.073Z,-0.8
2023-01-19T01:45:16.983Z,-0.8
2023-01-19T01:46:20.687Z,-0.7
2023-01-19T01:47:24.108Z,-0.7
2023-01-19T01:48:27.971Z,-0.7
2023-01-19T01:49:31.068Z,-0.7
2023-01-19T01:50:33.311Z,-0.7
2023-01-19T01:51:36.501Z,-0.7
2023-01-19T01:52:39.924Z,-0.7
2023-01-19T01:53:43.016Z,-0.7
2023-01-19T01:54:46.011Z,-0.7
2023-01-19T01:55:48.759Z,-0.7
2023-01-19T01:56:51.849Z,-0.8
2023-01-19T01:57:56.137Z,-0.7
2023-01-19T01:58:59.475Z,-0.7
2023-01-19T02:00:01.965Z,-0.7
2023-01-19T02:01:04.845Z,-0.6
2023-01-19T02:02:10.708Z,-0.6
2023-01-19T02:03:13.907Z,-0.7
2023-01-19T02:04:17.715Z,-0.6
2023-01-19T02:05:20.830Z,-0.7
2023-01-19T02:06:23.547Z,-0.6
2023-01-19T02:07:26.941Z,-0.6
2023-01-19T02:08:30.380Z,-0.6
2023-01-19T02:09:33.837Z,-0.7
2023-01-19T02:10:36.079Z,-0.6
2023-01-19T02:11:39.191Z,-0.6
2023-01-19T02:12:42.709Z,-0.7
2023-01-19T02:13:44.961Z,-0.7
2023-01-19T02:14:48.447Z,-0.7
2023-01-19T02:15:51.643Z,-0.7
2023-01-19T02:16:55.127Z,-0.7
2023-01-19T02:17:58.835Z,-0.7
2023-01-19T02:19:01.622Z,-0.7
2023-01-19T02:20:05.337Z,-0.7
2023-01-19T02:21:09.452Z,-0.7
2023-01-19T02:22:12.444Z,-0.7
2023-01-19T02:23:15.660Z,-0.7
2023-01-19T02:24:18.208Z,-0.7
2023-01-19T02:25:21.136Z,-0.7
2023-01-19T02:26:24.956Z,-0.6
2023-01-19T02:27:28.392Z,-0.6
2023-01-19T02:28:31.453Z,-0.6
2023-01-19T02:29:34.165Z,-0.6
2023-01-19T02:30:37.399Z,-0.6
2023-01-19T02:31:40.673Z,-0.6
2023-01-19T02:32:43.709Z,-0.6
2023-01-19T02:33:47.088Z,-0.6
2023-01-19T02:34:50.085Z,-0.7
2023-01-19T02:35:53.895Z,-0.6
2023-01-19T02:36:57.644Z,-0.7
2023-01-19T02:38:00.201Z,-0.6
2023-01-19T02:39:02.540Z,-0.6
2023-01-19T02:40:05.545Z,-0.5
2023-01-19T02:41:08.972Z,-0.5
2023-01-19T02:42:12.312Z,-0.5
2023-01-19T02:43:15.040Z,-0.5
2023-01-19T02:44:18.052Z,-0.5
2023-01-19T02:45:21.904Z,-0.5
2023-01-19T02:46:24.856Z,-0.5
2023-01-19T02:47:27.634Z,-0.5
2023-01-19T02:48:30.814Z,-0.5
2023-01-19T02:49:33.884Z,-0.5
2023-01-19T02:50:36.888Z,-0.5
2023-01-19T02:51:40.684Z,-0.4
2023-01-19T02:52:43.492Z,-0.5
2023-01-19T02:53:46.203Z,-0.4
2023-01-19T02:54:49.189Z,-0.4
2023-01-19T02:55:52.806Z,-0.4
2023-01-19T02:56:55.863Z,-0.4
2023-01-19T02:57:58.767Z,-0.4
2023-01-19T02:59:01.481Z,-0.4
2023-01-19T03:00:03.727Z,-0.4
2023-01-19T03:01:07.258Z,-0.4
2023-01-19T03:02:11.311Z,-0.4
2023-01-19T03:03:15.033Z,-0.4
2023-01-19T03:04:18.323Z,-0.4
2023-01-19T03:05:21.114Z,-0.4
2023-01-19T03:06:24.348Z,-0.5
2023-01-19T03:07:28.251Z,-0.4
2023-01-19T03:08:32.036Z,-0.4
2023-01-19T03:09:35.040Z,-0.4
2023-01-19T03:10:38.138Z,-0.4
2023-01-19T03:11:40.322Z,-0.4
2023-01-19T03:12:43.894Z,-0.3
2023-01-19T03:13:46.752Z,-0.4
2023-01-19T03:14:50.404Z,-0.4
2023-01-19T03:15:54.463Z,-0.4
2023-01-19T03:16:58.255Z,-0.4
2023-01-19T03:18:01.138Z,-0.4
2023-01-19T03:19:04.877Z,-0.4
2023-01-19T03:20:08.351Z,-0.4
2023-01-19T03:21:11.731Z,-0.4
2023-01-19T03:22:15.145Z,-0.4
2023-01-19T03:23:19.233Z,-0.5
2023-01-19T03:24:22.190Z,-0.4
2023-01-19T03:25:24.833Z,-0.4
2023-01-19T03:26:27.288Z,-0.4
2023-01-19T03:27:30.042Z,-0.4
2023-01-19T03:28:33.409Z,-0.4
2023-01-19T03:29:36.412Z,-0.4
2023-01-19T03:30:40.157Z,-0.4
2023-01-19T03:31:43.565Z,-0.3
2023-01-19T03:32:46.317Z,-0.4
2023-01-19T03:33:49.484Z,-0.4
2023-01-19T03:34:52.280Z,-0.4
2023-01-19T03:35:55.301Z,-0.5
2023-01-19T03:36:57.883Z,-0.4
2023-01-19T03:38:01.564Z,-0.4
2023-01-19T03:39:05.471Z,-0.4
2023-01-19T03:40:09.050Z,-0.4
2023-01-19T03:41:12.820Z,-0.4
2023-01-19T03:42:15.947Z,-0.3
2023-01-19T03:43:19.069Z,-0.4
2023-01-19T03:44:21.952Z,-0.4
2023-01-19T03:45:25.315Z,-0.3
2023-01-19T03:46:29.403Z,-0.4
2023-01-19T03:47:32.765Z,-0.4
2023-01-19T03:48:36.046Z,-0.4
2023-01-19T03:49:39.124Z,-0.4
2023-01-19T03:50:41.843Z,-0.4
2023-01-19T03:51:44.865Z,-0.3
2023-01-19T03:52:47.363Z,-0.4
2023-01-19T03:53:50.714Z,-0.3
2023-01-19T03:54:54.498Z,-0.4
2023-01-19T03:55:57.022Z,-0.3
2023-01-19T03:57:00.025Z,-0.3
2023-01-19T03:58:03.251Z,-0.3
2023-01-19T03:59:06.902Z,-0.3
2023-01-19T04:00:09.373Z,-0.3
2023-01-19T04:01:13.532Z,-0.3
2023-01-19T04:02:17.375Z,-0.3
2023-01-19T04:03:21.554Z,-0.3
2023-01-19T04:04:24.842Z,-0.4
2023-01-19T04:05:27.475Z,-0.3
2023-01-19T04:06:30.759Z,-0.3
2023-01-19T04:07:34.166Z,-0.3
2023-01-19T04:08:38.189Z,-0.3
2023-01-19T04:09:40.969Z,-0.3
2023-01-19T04:10:45.164Z,-0.3
2023-01-19T04:11:48.274Z,-0.3
2023-01-19T04:12:50.799Z,-0.2
2023-01-19T04:13:54.593Z,-0.2
2023-01-19T04:14:57.803Z,-0.2
2023-01-19T04:16:00.727Z,-0.2
2023-01-19T04:17:03.906Z,-0.2
2023-01-19T04:18:06.741Z,-0.2
2023-01-19T04:19:09.510Z,-0.2
2023-01-19T04:20:13.190Z,-0.2
2023-01-19T04:21:16.270Z,-0.2
2023-01-19T04:22:18.702Z,-0.2
2023-01-19T04:23:21.926Z,-0.2
2023-01-19T04:24:24.735Z,-0.2
2023-01-19T04:25:28.154Z,-0.2
2023-01-19T04:26:31.963Z,-0.2
2023-01-19T04:27:35.089Z,-0.2
2023-01-19T04:28:37.661Z,-0.1
2023-01-19T04:29:40.476Z,-0.1
2023-01-19T04:30:43.461Z,-0.1
2023-01-19T04:31:46.924Z,-0.1
2023-01-19T04:32:50.015Z,-0.1
2023-01-19T04:33:53.284Z,-0.2
2023-01-19T04:34:56.085Z,-0.1
2023-01-19T04:35:59.421Z,-0.2
2023-01-19T04:37:02.493Z,-0.2
2023-01-19T04:38:05.850Z,-0.2
2023-01-19T04:39:08.959Z,-0.2
2023-01-19T04:40:12.033Z,-0.2
2023-01-19T04:41:15.144Z,-0.1
2023-01-19T04:42:19.039Z,-0.2
2023-01-19T04:43:22.800Z,-0.2
2023-01-19T04:44:25.592Z,-0.2
2023-01-19T04:45:28.651Z,-0.2
2023-01-19T04:46:31.949Z,-0.2
2023-01-19T04:47:35.053Z,-0.2
2023-01-19T04:48:40.110Z,-0.1
2023-01-19T04:49:44.441Z,-0.1
2023-01-19T04:50:48.652Z,-0.1
2023-01-19T04:51:51.626Z,-0.2
2023-01-19T04:52:54.549Z,-0.1
2023-01-19T04:53:57.557Z,-0.1
2023-01-19T04:55:01.063Z,-0.1
2023-01-19T04:56:04.434Z,-0.1
2023-01-19T04:57:07.458Z,-0.1
2023-01-19T04:58:11.357Z,-0.1
2023-01-19T04:59:15.090Z,0
2023-01-19T05:00:18.152Z,-0.1
2023-01-19T05:01:22.008Z,-0.1
2023-01-19T05:02:25.985Z,-0.1
2023-01-19T05:03:29.164Z,-0.1
2023-01-19T05:04:32.163Z,-0.1
2023-01-19T05:05:35.243Z,-0.1
2023-01-19T05:06:38.346Z,-0.2
2023-01-19T05:07:41.055Z,-0.1
2023-01-19T05:08:47.279Z,-0.1
2023-01-19T05:09:49.492Z,-0.1
2023-01-19T05:10:52.909Z,-0.1
2023-01-19T05:11:56.101Z,-0.2
2023-01-19T05:13:01.939Z,-0.2
2023-01-19T05:14:06.360Z,-0.2
2023-01-19T05:15:09.473Z,-0.2
2023-01-19T05:16:13.127Z,-0.2
2023-01-19T05:17:15.605Z,-0.1
2023-01-19T05:18:18.402Z,-0.1
2023-01-19T05:19:20.904Z,-0.2
2023-01-19T05:20:24.185Z,-0.1
2023-01-19T05:21:27.294Z,-0.2
2023-01-19T05:22:30.390Z,-0.2
2023-01-19T05:23:34.118Z,-0.2
2023-01-19T05:24:37.277Z,-0.2
2023-01-19T05:25:40.594Z,-0.1
2023-01-19T05:26:43.971Z,-0.1
2023-01-19T05:27:47.389Z,-0.2
2023-01-19T05:28:50.881Z,-0.2
2023-01-19T05:29:55.077Z,-0.2
2023-01-19T05:30:58.121Z,-0.2
2023-01-19T05:32:02.031Z,-0.2
2023-01-19T05:33:05.570Z,-0.2
2023-01-19T05:34:07.837Z,-0.2
2023-01-19T05:35:10.326Z,-0.2
2023-01-19T05:36:13.983Z,-0.1
2023-01-19T05:37:16.763Z,-0.1
2023-01-19T05:38:36.932Z,-0.1
2023-01-19T05:39:40.455Z,-0.1
2023-01-19T05:40:43.891Z,-0.2
2023-01-19T05:41:46.884Z,-0.2
2023-01-19T05:42:50.323Z,-0.1
2023-01-19T05:43:53.732Z,-0.2
2023-01-19T05:44:57.473Z,-0.2
2023-01-19T05:46:01.661Z,-0.2
2023-01-19T05:47:04.667Z,-0.1
2023-01-19T05:48:10.635Z,-0.1
2023-01-19T05:49:12.814Z,-0.1
2023-01-19T05:50:16.014Z,-0.1
2023-01-19T05:51:19.480Z,-0.1
2023-01-19T05:52:21.625Z,-0.1
2023-01-19T05:53:24.806Z,-0.1
2023-01-19T05:54:27.087Z,-0.1
2023-01-19T05:55:30.260Z,-0.1
2023-01-19T05:56:33.652Z,-0.1
2023-01-19T05:57:36.836Z,0
2023-01-19T05:58:39.956Z,0
2023-01-19T05:59:43.141Z,0
2023-01-19T06:00:46.876Z,0
2023-01-19T06:01:51.024Z,0
2023-01-19T06:02:54.515Z,0
2023-01-19T06:03:57.524Z,0
2023-01-19T06:05:00.324Z,0
2023-01-19T06:06:03.056Z,0
2023-01-19T06:07:06.302Z,-0.1
2023-01-19T06:08:09.517Z,0
2023-01-19T06:09:12.852Z,-0.1
2023-01-19T06:10:16.300Z,0
2023-01-19T06:11:19.361Z,-0.1
2023-01-19T06:12:22.452Z,-0.1
2023-01-19T06:13:24.635Z,-0.1
2023-01-19T06:14:27.879Z,-0.1
2023-01-19T06:15:31.297Z,0
2023-01-19T06:16:35.134Z,0
2023-01-19T06:17:39.205Z,0.1
2023-01-19T06:18:42.485Z,0.1
2023-01-19T06:19:46.038Z,0.1
2023-01-19T06:20:49.889Z,0
2023-01-19T06:21:52.664Z,0.1
2023-01-19T06:22:55.609Z,0
2023-01-19T06:23:58.669Z,0
2023-01-19T06:25:02.079Z,0
2023-01-19T06:26:05.194Z,0
2023-01-19T06:27:07.961Z,0
2023-01-19T06:28:11.385Z,0
2023-01-19T06:29:14.793Z,0
2023-01-19T06:30:17.787Z,0.1
2023-01-19T06:31:20.567Z,0.1
2023-01-19T06:32:24.748Z,0.1
2023-01-19T06:33:28.447Z,0.1
2023-01-19T06:34:31.862Z,0.1
2023-01-19T06:35:35.116Z,0.1
2023-01-19T06:36:38.246Z,0
2023-01-19T06:37:41.118Z,0.1
2023-01-19T06:38:44.843Z,0.1
2023-01-19T06:39:48.531Z,0.1
2023-01-19T06:40:51.583Z,0.1
2023-01-19T06:41:54.142Z,0.1
2023-01-19T06:42:57.837Z,0.1
2023-01-19T06:44:01.066Z,0.1
2023-01-19T06:45:03.999Z,0.1
2023-01-19T06:46:07.789Z,0.1
2023-01-19T06:47:17.810Z,0.1
2023-01-19T06:48:21.951Z,0.1
2023-01-19T06:49:25.691Z,0.1
2023-01-19T06:50:29.331Z,0.2
2023-01-19T06:51:32.704Z,0.1
2023-01-19T06:52:35.508Z,0.1
2023-01-19T06:53:38.299Z,0.2
2023-01-19T06:54:41.726Z,0.1
2023-01-19T06:55:45.160Z,0.1
2023-01-19T06:56:48.267Z,0.1
2023-01-19T06:57:51.862Z,0.1
2023-01-19T06:58:54.561Z,0.1
2023-01-19T06:59:57.622Z,0.2
2023-01-19T07:01:01.115Z,0.2
2023-01-19T07:02:30.780Z,0.1
2023-01-19T07:03:35.113Z,0.1
2023-01-19T07:04:38.833Z,0.2
2023-01-19T07:05:42.528Z,0.2
2023-01-19T07:06:46.223Z,0.2
2023-01-19T07:07:49.308Z,0.2
2023-01-19T07:08:52.463Z,0.2
2023-01-19T07:09:56.045Z,0.2
2023-01-19T07:11:34.009Z,0.2
2023-01-19T07:12:37.841Z,0.3
2023-01-19T07:13:41.034Z,0.3
2023-01-19T07:14:45.025Z,0.2
2023-01-19T07:15:48.467Z,0.2
2023-01-19T07:16:52.011Z,0.2
2023-01-19T07:17:55.825Z,0.2
2023-01-19T07:18:59.666Z,0.2
2023-01-19T07:20:02.649Z,0.3
2023-01-19T07:21:05.986Z,0.3
2023-01-19T07:22:09.474Z,0.2
2023-01-19T07:23:12.192Z,0.2
2023-01-19T07:24:15.981Z,0.3
2023-01-19T07:25:19.170Z,0.3
2023-01-19T07:26:23.134Z,0.3
2023-01-19T07:27:26.787Z,0.3
2023-01-19T07:28:30.006Z,0.3
2023-01-19T07:29:33.735Z,0.3
2023-01-19T07:30:37.815Z,0.3
2023-01-19T07:31:42.048Z,0.3
2023-01-19T07:32:45.607Z,0.3
2023-01-19T07:33:48.985Z,0.3
2023-01-19T07:34:52.826Z,0.2
2023-01-19T07:35:56.347Z,0.2
2023-01-19T07:36:59.672Z,0.2
2023-01-19T07:38:03.008Z,0.2
2023-01-19T07:39:06.662Z,0.2
2023-01-19T07:40:09.926Z,0.3
2023-01-19T07:41:13.508Z,0.3
2023-01-19T07:42:16.879Z,0.3
2023-01-19T07:43:20.200Z,0.3
2023-01-19T07:44:23.549Z,0.4
2023-01-19T07:45:29.716Z,0.4
2023-01-19T07:46:32.525Z,0.3
2023-01-19T07:47:35.224Z,0.3
2023-01-19T07:48:38.116Z,0.3
2023-01-19T07:49:41.618Z,0.3
2023-01-19T07:50:45.839Z,0.4
2023-01-19T07:51:49.895Z,0.4
2023-01-19T07:52:53.023Z,0.5
2023-01-19T07:53:56.319Z,0.4
2023-01-19T07:54:59.757Z,0.4
2023-01-19T07:56:02.916Z,0.4
2023-01-19T07:57:05.647Z,0.4
2023-01-19T07:58:08.941Z,0.4
2023-01-19T07:59:12.986Z,0.4
2023-01-19T08:00:16.167Z,0.4
2023-01-19T08:01:20.453Z,0.4
2023-01-19T08:02:25.029Z,0.4
2023-01-19T08:03:28.157Z,0.4
2023-01-19T08:04:31.574Z,0.4
2023-01-19T08:05:35.424Z,0.4
2023-01-19T08:06:39.375Z,0.4
2023-01-19T08:07:43.019Z,0.4
2023-01-19T08:08:46.477Z,0.4
2023-01-19T08:09:48.930Z,0.5
2023-01-19T08:10:52.796Z,0.4
2023-01-19T08:11:56.236Z,0.4
2023-01-19T08:13:00.799Z,0.4
2023-01-19T08:14:08.418Z,0.5
2023-01-19T08:15:11.509Z,0.4
2023-01-19T08:16:14.964Z,0.5
2023-01-19T08:17:17.767Z,0.5
2023-01-19T08:18:20.770Z,0.5
2023-01-19T08:19:24.487Z,0.6
2023-01-19T08:20:28.042Z,0.5
2023-01-19T08:21:30.513Z,0.6
2023-01-19T08:22:33.731Z,0.5
2023-01-19T08:23:37.560Z,0.5
2023-01-19T08:24:40.940Z,0.6
2023-01-19T08:25:44.816Z,0.6
2023-01-19T08:26:48.475Z,0.6
2023-01-19T08:27:51.753Z,0.6
2023-01-19T08:28:55.353Z,0.7
2023-01-19T08:29:59.012Z,0.7
2023-01-19T08:31:26.126Z,0.7
2023-01-19T08:32:30.293Z,0.7
2023-01-19T08:33:32.806Z,0.6
2023-01-19T08:34:36.464Z,0.6
2023-01-19T08:35:39.929Z,0.6
2023-01-19T08:36:43.976Z,0.6
2023-01-19T08:37:48.079Z,0.7
2023-01-19T08:38:51.686Z,0.6
2023-01-19T08:39:55.391Z,0.7
2023-01-19T08:40:58.478Z,0.7
2023-01-19T08:42:01.831Z,0.7
2023-01-19T08:43:05.547Z,0.8
2023-01-19T08:44:09.327Z,0.8
2023-01-19T08:45:12.998Z,0.8
2023-01-19T08:46:16.108Z,0.8
2023-01-19T08:47:19.768Z,0.8
2023-01-19T08:48:22.659Z,0.9
2023-01-19T08:49:26.111Z,0.9
2023-01-19T08:50:29.625Z,0.9
2023-01-19T08:51:33.101Z,0.9
2023-01-19T08:52:36.400Z,0.9
2023-01-19T08:53:40.169Z,1
2023-01-19T08:54:43.965Z,0.9
2023-01-19T08:55:47.086Z,1
2023-01-19T08:56:50.472Z,0.9
2023-01-19T08:57:53.926Z,0.9
2023-01-19T09:08:10.445Z,1.1
2023-01-19T09:09:13.960Z,1.1
2023-01-19T09:10:17.732Z,1.1
2023-01-19T09:11:21.061Z,1.1
2023-01-19T09:12:24.887Z,1.1
2023-01-19T09:13:28.444Z,1.1
2023-01-19T09:14:31.889Z,1.2
2023-01-19T09:15:35.587Z,1.2
2023-01-19T09:16:38.917Z,1.2
2023-01-19T09:17:42.030Z,1.2
2023-01-19T09:18:44.811Z,1.2
2023-01-19T09:19:48.562Z,1.3
2023-01-19T09:20:52.041Z,1.3
2023-01-19T09:21:55.110Z,1.3
2023-01-19T09:22:57.948Z,1.3
2023-01-19T09:24:01.063Z,1.3
2023-01-19T09:25:04.595Z,1.3
2023-01-19T09:26:08.075Z,1.3
2023-01-19T09:27:10.814Z,1.3
2023-01-19T09:28:14.667Z,1.2
2023-01-19T09:29:17.430Z,1.3
2023-01-19T09:30:20.847Z,1.3
2023-01-19T09:31:25.627Z,1.3
2023-01-19T09:32:29.481Z,1.3
2023-01-19T09:33:32.888Z,1.3
2023-01-19T09:34:36.907Z,1.3
2023-01-19T09:35:40.396Z,1.3
2023-01-19T09:36:44.025Z,1.3
2023-01-19T09:37:47.626Z,1.3
2023-01-19T09:38:51.136Z,1.3
2023-01-19T09:39:54.997Z,1.4
2023-01-19T09:40:58.881Z,1.4
2023-01-19T09:42:02.507Z,1.4
2023-01-19T09:43:06.315Z,1.4
2023-01-19T09:44:09.982Z,1.4
2023-01-19T09:45:14.364Z,1.5
2023-01-19T09:46:18.357Z,1.5
2023-01-19T09:47:21.763Z,1.4
2023-01-19T09:48:25.265Z,1.4
2023-01-19T09:49:27.699Z,1.5
2023-01-19T09:50:31.316Z,1.5
2023-01-19T09:51:35.045Z,1.5
2023-01-19T09:52:38.136Z,1.6
2023-01-19T09:53:41.234Z,1.5
2023-01-19T09:54:44.334Z,1.5
2023-01-19T09:55:47.773Z,1.6
2023-01-19T09:56:54.500Z,1.5
2023-01-19T09:57:58.328Z,1.6
2023-01-19T09:59:01.988Z,1.7
2023-01-19T10:00:04.780Z,1.7
2023-01-19T10:01:09.079Z,1.8
2023-01-19T10:02:12.373Z,1.7
2023-01-19T10:03:15.903Z,1.7
2023-01-19T10:04:18.920Z,1.8
2023-01-19T10:05:22.222Z,1.8
2023-01-19T10:06:25.648Z,1.8
2023-01-19T10:07:29.290Z,1.7
2023-01-19T10:08:32.659Z,1.8
2023-01-19T10:09:36.071Z,1.8
2023-01-19T10:10:38.584Z,2
2023-01-19T10:11:55.025Z,2.1
2023-01-19T10:12:59.669Z,2.1
2023-01-19T10:14:04.055Z,2
2023-01-19T10:15:07.467Z,2.1
2023-01-19T10:16:10.310Z,2.3
2023-01-19T10:17:13.300Z,2.5
2023-01-19T10:18:16.180Z,2.7
2023-01-19T10:19:19.257Z,3
2023-01-19T10:20:22.343Z,3.3
2023-01-19T10:21:26.885Z,3.8
2023-01-19T10:22:30.613Z,3.6
2023-01-19T10:23:34.464Z,3.4
2023-01-19T10:24:38.304Z,3.1
2023-01-19T10:25:42.264Z,3
2023-01-19T10:26:46.251Z,2.8
2023-01-19T10:27:48.450Z,2.7
2023-01-19T10:28:52.947Z,2.6
2023-01-19T10:29:57.167Z,2.6
2023-01-19T10:31:01.093Z,2.5
2023-01-19T10:32:05.755Z,2.5
2023-01-19T10:33:08.995Z,2.4
2023-01-19T10:34:12.479Z,2.5
2023-01-19T10:35:16.461Z,2.4
2023-01-19T10:36:18.969Z,2.5
2023-01-19T10:37:22.505Z,2.7
2023-01-19T10:38:25.833Z,2.8
2023-01-19T10:39:29.858Z,2.8
2023-01-19T10:40:33.791Z,2.8
2023-01-19T10:41:37.465Z,2.8
2023-01-19T10:42:41.607Z,2.7
2023-01-19T10:43:44.781Z,2.7
2023-01-19T10:44:48.493Z,2.7
2023-01-19T10:45:52.956Z,2.8
2023-01-19T10:46:56.056Z,3.2
2023-01-19T10:47:59.821Z,3.3
2023-01-19T10:49:03.221Z,3.5
2023-01-19T10:50:06.056Z,3.5
2023-01-19T10:51:09.560Z,3.7
2023-01-19T10:52:13.030Z,3.7
2023-01-19T10:53:15.776Z,3.8
2023-01-19T10:54:19.261Z,3.9
2023-01-19T10:55:22.758Z,4.1
2023-01-19T10:56:26.678Z,4.2
2023-01-19T10:57:30.178Z,4.4
2023-01-19T10:58:33.721Z,4.6
2023-01-19T10:59:36.643Z,4.8
2023-01-19T11:00:41.021Z,5
2023-01-19T11:01:46.110Z,5.3
2023-01-19T11:02:49.508Z,5.3
2023-01-19T11:03:53.153Z,5.2
2023-01-19T11:04:56.511Z,5.2
2023-01-19T11:05:59.692Z,5.1
2023-01-19T11:07:02.744Z,5
2023-01-19T11:08:06.125Z,4.8
2023-01-19T11:09:09.145Z,4.6
2023-01-19T11:10:12.271Z,4.5
2023-01-19T11:11:15.091Z,4.5
2023-01-19T11:12:18.223Z,4.4
2023-01-19T11:13:21.452Z,4.4
2023-01-19T11:14:24.743Z,4.4
2023-01-19T11:15:28.033Z,4.5
2023-01-19T11:16:32.124Z,4.7
2023-01-19T11:17:36.288Z,4.9
2023-01-19T11:18:39.500Z,5.1
2023-01-19T11:19:42.872Z,5.2
2023-01-19T11:20:45.383Z,5.4
2023-01-19T11:21:49.010Z,5.5
2023-01-19T11:22:52.694Z,5.4
2023-01-19T11:23:56.433Z,5.4
2023-01-19T11:24:59.829Z,5.4
2023-01-19T11:26:03.086Z,5.6
2023-01-19T11:27:06.712Z,5.6
2023-01-19T11:28:10.060Z,5.7
2023-01-19T11:29:13.154Z,5.8
2023-01-19T11:30:16.229Z,6
2023-01-19T11:31:20.717Z,6
2023-01-19T11:32:24.692Z,6
2023-01-19T11:33:28.494Z,6.1
2023-01-19T11:34:31.208Z,5.8
2023-01-19T11:35:35.340Z,5.6
2023-01-19T11:36:38.465Z,5.6
2023-01-19T11:37:41.744Z,5.5
2023-01-19T11:38:44.960Z,5.4
2023-01-19T11:39:49.039Z,5.3
2023-01-19T11:40:52.559Z,5.1
2023-01-19T11:41:55.954Z,4.9
2023-01-19T11:42:59.958Z,4.9
2023-01-19T11:44:03.816Z,4.9
2023-01-19T11:45:06.578Z,4.8
2023-01-19T11:46:09.883Z,4.8
2023-01-19T11:47:13.231Z,4.8
2023-01-19T11:48:16.407Z,4.9
2023-01-19T11:49:20.120Z,4.9
2023-01-19T11:50:23.587Z,4.9
2023-01-19T11:51:27.387Z,5.1
2023-01-19T11:52:30.491Z,5.1
2023-01-19T11:53:33.866Z,5
2023-01-19T11:54:36.668Z,4.7
2023-01-19T11:55:39.400Z,4.7
2023-01-19T11:56:43.416Z,4.7
2023-01-19T11:57:47.214Z,4.6
2023-01-19T11:58:50.614Z,4.4
2023-01-19T11:59:53.744Z,4.2
2023-01-19T12:00:56.969Z,4
2023-01-19T12:02:00.907Z,4.1
2023-01-19T12:03:03.891Z,4
2023-01-19T12:04:07.863Z,4
2023-01-19T12:05:11.997Z,3.8
2023-01-19T12:06:15.107Z,3.7
2023-01-19T12:07:17.547Z,3.7
2023-01-19T12:08:21.342Z,3.7
2023-01-19T12:09:25.499Z,3.8
2023-01-19T12:10:28.942Z,3.8
2023-01-19T12:11:32.362Z,3.8
2023-01-19T12:12:36.071Z,3.8
2023-01-19T12:13:39.792Z,3.9
2023-01-19T12:14:42.826Z,3.9
2023-01-19T12:15:45.544Z,4
2023-01-19T12:16:48.588Z,3.9
2023-01-19T12:17:51.815Z,3.9
2023-01-19T12:18:54.968Z,3.8
2023-01-19T12:19:58.553Z,3.9
2023-01-19T12:21:05.928Z,3.8
2023-01-19T12:22:09.283Z,3.7
2023-01-19T12:23:12.929Z,3.7
2023-01-19T12:24:15.813Z,3.6
2023-01-19T12:25:19.390Z,3.6
2023-01-19T12:26:23.041Z,3.6
2023-01-19T12:27:26.761Z,3.5
2023-01-19T12:28:29.875Z,3.6
2023-01-19T12:29:32.725Z,3.6
2023-01-19T12:30:37.219Z,3.5
2023-01-19T12:31:40.955Z,3.5
2023-01-19T12:32:44.548Z,3.5
2023-01-19T12:33:48.203Z,3.5
2023-01-19T12:34:52.102Z,3.5
2023-01-19T12:35:56.130Z,3.5
2023-01-19T12:36:59.994Z,3.5
2023-01-19T12:38:03.189Z,3.4
2023-01-19T12:39:06.656Z,3.5
2023-01-19T12:40:09.746Z,3.4
2023-01-19T12:41:12.485Z,3.5
2023-01-19T12:42:15.313Z,3.4
2023-01-19T12:43:18.649Z,3.5
2023-01-19T12:44:21.746Z,3.4
2023-01-19T12:45:25.476Z,3.4
2023-01-19T12:46:29.200Z,3.3
2023-01-19T12:47:33.045Z,3.3
2023-01-19T12:48:35.865Z,3.3
2023-01-19T12:49:39.027Z,3.3
2023-01-19T12:50:42.739Z,3.3
2023-01-19T12:51:46.567Z,3.3
2023-01-19T12:52:50.109Z,3.3
2023-01-19T12:53:53.451Z,3.4
2023-01-19T12:54:56.537Z,3.3
2023-01-19T12:56:00.055Z,3.4
2023-01-19T12:57:03.658Z,3.4
2023-01-19T12:58:07.393Z,3.5
2023-01-19T12:59:10.188Z,3.4
2023-01-19T13:00:14.068Z,3.4
2023-01-19T13:01:17.987Z,3.4
2023-01-19T13:02:22.084Z,3.4
2023-01-19T13:03:24.974Z,3.4
2023-01-19T13:04:28.488Z,3.4
2023-01-19T13:05:34.822Z,3.3
2023-01-19T13:06:38.225Z,3.2
2023-01-19T13:07:42.027Z,3.2
2023-01-19T13:08:46.181Z,3.3
2023-01-19T13:09:49.314Z,3.2
2023-01-19T13:10:52.298Z,3.2
2023-01-19T13:12:02.724Z,3.2
2023-01-19T13:13:05.553Z,3.2
2023-01-19T13:14:09.168Z,3.3
2023-01-19T13:15:11.980Z,3.2
2023-01-19T13:16:15.751Z,3.2
2023-01-19T13:17:19.509Z,3.2
2023-01-19T13:18:22.611Z,3.1
2023-01-19T13:19:26.268Z,3.1
2023-01-19T13:20:29.676Z,3.2
2023-01-19T13:21:33.693Z,3.2
2023-01-19T13:22:36.855Z,3.2
2023-01-19T13:23:40.411Z,3.3
2023-01-19T13:24:43.981Z,3.3
2023-01-19T13:25:47.101Z,3.4
2023-01-19T13:26:50.725Z,3.3
2023-01-19T13:27:53.828Z,3.4
2023-01-19T13:28:57.134Z,3.3
2023-01-19T13:30:02.745Z,3.3
2023-01-19T13:31:07.340Z,3.4
2023-01-19T13:32:10.272Z,3.3
2023-01-19T13:33:13.341Z,3.2
2023-01-19T13:34:16.730Z,3.3
2023-01-19T13:35:19.506Z,3.3
2023-01-19T13:36:22.682Z,3.2
2023-01-19T13:37:26.076Z,3.2
2023-01-19T13:38:28.691Z,3.2
2023-01-19T13:39:32.803Z,3.3
2023-01-19T13:40:36.992Z,3.3
2023-01-19T13:41:40.744Z,3.3
2023-01-19T13:42:44.128Z,3.4
2023-01-19T13:43:47.237Z,3.4
2023-01-19T13:44:50.965Z,3.4
2023-01-19T13:45:55.198Z,3.4
2023-01-19T13:46:58.945Z,3.3
2023-01-19T13:48:02.374Z,3.2
2023-01-19T13:49:04.908Z,3.2
2023-01-19T13:50:08.124Z,3
2023-01-19T13:51:11.520Z,3
2023-01-19T13:52:14.184Z,3
2023-01-19T13:53:18.240Z,3
2023-01-19T13:54:21.748Z,3
2023-01-19T13:55:25.956Z,3.1
2023-01-19T13:56:29.980Z,3
2023-01-19T13:57:33.554Z,3
2023-01-19T13:58:37.210Z,3
2023-01-19T13:59:40.456Z,3
2023-01-19T14:00:43.797Z,3
2023-01-19T14:01:48.641Z,3
2023-01-19T14:02:53.199Z,3
2023-01-19T14:03:56.148Z,3.3
2023-01-19T14:04:59.318Z,3.3
2023-01-19T14:06:02.489Z,3.3
2023-01-19T14:07:05.363Z,3.2
2023-01-19T14:08:08.066Z,3.2
2023-01-19T14:09:11.862Z,3.2
2023-01-19T14:10:15.268Z,3.3
2023-01-19T14:11:19.506Z,3.3
2023-01-19T14:12:22.946Z,3.2
2023-01-19T14:13:26.486Z,3
2023-01-19T14:14:29.588Z,3
2023-01-19T14:15:33.616Z,3
2023-01-19T14:16:37.283Z,3
2023-01-19T14:17:40.328Z,3
2023-01-19T14:18:43.997Z,3
2023-01-19T14:19:47.327Z,3
2023-01-19T14:20:50.509Z,3
2023-01-19T14:21:53.937Z,2.9
2023-01-19T14:22:56.740Z,3
2023-01-19T14:24:00.429Z,3
2023-01-19T14:25:03.616Z,3
2023-01-19T14:26:07.029Z,2.9
2023-01-19T14:27:10.515Z,2.8
2023-01-19T14:28:13.958Z,2.7
2023-01-19T14:29:17.949Z,2.7
2023-01-19T14:30:21.710Z,2.6
2023-01-19T14:31:25.688Z,2.6
2023-01-19T14:32:29.583Z,2.7
2023-01-19T14:33:33.007Z,2.7
2023-01-19T14:34:36.648Z,2.6
2023-01-19T14:35:40.056Z,2.6
2023-01-19T14:36:43.415Z,2.6
2023-01-19T14:37:46.786Z,2.6